createdAt,value
2022-08-28T00:02:09.613Z,65.12
2022-08-28T00:04:37.586Z,65.17
2022-08-28T00:07:06.911Z,65.41
2022-08-28T00:09:34.875Z,65.93
2022-08-28T00:12:02.869Z,66.56
2022-08-28T00:14:30.967Z,67.10
2022-08-28T00:16:59.016Z,67.56
2022-08-28T00:19:27.290Z,67.64
2022-08-28T00:21:55.224Z,67.50
2022-08-28T00:24:24.506Z,67.17
2022-08-28T00:27:09.980Z,66.74
2022-08-28T00:29:39.070Z,66.87
2022-08-28T00:32:08.827Z,67.15
2022-08-28T00:34:36.948Z,67.82
2022-08-28T00:37:04.953Z,68.39
2022-08-28T00:39:34.539Z,69.00
2022-08-28T00:42:02.504Z,69.56
2022-08-28T00:44:31.184Z,69.07
2022-08-28T00:47:00.177Z,69.20
2022-08-28T00:49:31.145Z,69.33
2022-08-28T00:52:12.737Z,70.16
2022-08-28T00:54:58.422Z,70.51
2022-08-28T00:57:30.460Z,70.21
2022-08-28T00:59:58.644Z,69.91
2022-08-28T01:02:27.666Z,69.77
2022-08-28T01:04:56.558Z,69.79
2022-08-28T01:07:24.828Z,70.48
2022-08-28T01:09:56.488Z,70.88
2022-08-28T01:12:28.064Z,71.13
2022-08-28T01:14:59.954Z,70.96
2022-08-28T01:17:31.235Z,71.41
2022-08-28T01:20:03.743Z,71.46
2022-08-28T01:22:36.846Z,71.52
2022-08-28T01:25:10.441Z,71.52
2022-08-28T01:27:41.782Z,71.06
2022-08-28T01:30:12.093Z,70.97
2022-08-28T01:32:42.495Z,71.02
2022-08-28T01:35:13.441Z,71.02
2022-08-28T01:37:42.226Z,71.71
2022-08-28T01:40:15.154Z,72.53
2022-08-28T01:42:44.768Z,72.88
2022-08-28T01:45:15.395Z,73.50
2022-08-28T01:47:44.800Z,73.65
2022-08-28T01:50:15.972Z,72.80
2022-08-28T01:52:43.980Z,72.81
2022-08-28T01:55:14.055Z,72.33
2022-08-28T01:57:46.485Z,72.00
2022-08-28T02:00:16.013Z,72.31
2022-08-28T02:02:44.316Z,72.59
2022-08-28T02:05:13.262Z,72.11
2022-08-28T02:07:41.484Z,71.58
2022-08-28T02:10:11.917Z,72.05
2022-08-28T02:12:41.265Z,72.08
2022-08-28T02:15:10.049Z,72.23
2022-08-28T02:17:37.965Z,71.98
2022-08-28T02:20:07.432Z,71.68
2022-08-28T02:22:36.892Z,70.89
2022-08-28T02:25:06.245Z,71.00
2022-08-28T02:27:34.204Z,70.51
2022-08-28T02:30:03.437Z,70.87
2022-08-28T02:32:31.364Z,71.17
2022-08-28T02:34:59.265Z,70.87
2022-08-28T02:37:27.182Z,70.85
2022-08-28T02:39:57.308Z,70.50
2022-08-28T02:42:26.304Z,70.61
2022-08-28T02:44:54.193Z,70.96
2022-08-28T02:47:23.444Z,70.77
2022-08-28T02:49:51.297Z,71.06
2022-08-28T02:52:19.616Z,70.64
2022-08-28T02:54:47.511Z,70.53
2022-08-28T02:57:15.367Z,70.70
2022-08-28T02:59:43.952Z,71.11
2022-08-28T03:02:12.023Z,71.37
2022-08-28T03:04:41.408Z,71.61
2022-08-28T03:07:11.704Z,71.69
2022-08-28T03:09:41.479Z,71.99
2022-08-28T03:12:10.637Z,72.11
2022-08-28T03:14:38.572Z,71.86
2022-08-28T03:17:07.326Z,72.13
2022-08-28T03:19:35.933Z,72.15
2022-08-28T03:22:05.457Z,72.25
2022-08-28T03:24:33.220Z,72.39
2022-08-28T03:27:01.769Z,72.35
2022-08-28T03:29:29.718Z,72.38
2022-08-28T03:31:57.753Z,71.89
2022-08-28T03:34:25.662Z,71.99
2022-08-28T03:36:53.520Z,72.20
2022-08-28T03:39:22.791Z,72.28
2022-08-28T03:41:51.432Z,71.86
2022-08-28T03:44:19.329Z,71.77
2022-08-28T03:46:47.282Z,71.53
2022-08-28T03:49:15.159Z,71.42
2022-08-28T03:51:45.041Z,71.62
2022-08-28T03:54:13.005Z,71.62
2022-08-28T03:56:43.425Z,71.72
2022-08-28T03:59:11.353Z,72.25
2022-08-28T04:01:39.408Z,73.28
2022-08-28T04:04:07.526Z,73.98
2022-08-28T04:06:36.122Z,74.68
2022-08-28T04:09:04.539Z,75.70
2022-08-28T04:11:32.902Z,76.46
2022-08-28T04:14:02.097Z,77.32
2022-08-28T04:16:30.263Z,77.87
2022-08-28T04:18:59.192Z,78.68
2022-08-28T04:21:28.039Z,78.69
2022-08-28T04:23:56.645Z,78.78
2022-08-28T04:26:27.204Z,78.81
2022-08-28T04:28:56.391Z,78.99
2022-08-28T04:31:32.054Z,79.40
2022-08-28T04:34:01.242Z,79.63
2022-08-28T04:36:29.797Z,79.38
2022-08-28T04:38:58.542Z,79.32
2022-08-28T04:41:27.613Z,79.57
2022-08-28T04:43:57.408Z,79.50
2022-08-28T04:46:31.172Z,79.83
2022-08-28T04:48:59.743Z,79.96
2022-08-28T04:51:27.983Z,80.01
2022-08-28T04:53:55.875Z,80.00
2022-08-28T04:56:23.868Z,79.73
2022-08-28T04:58:51.877Z,79.62
2022-08-28T05:01:24.337Z,79.52
2022-08-28T05:03:57.901Z,79.57
2022-08-28T05:06:28.091Z,79.25
2022-08-28T05:08:57.515Z,78.82
2022-08-28T05:11:33.417Z,79.03
2022-08-28T05:14:05.168Z,78.68
2022-08-28T05:16:34.566Z,78.66
2022-08-28T05:19:04.605Z,78.71
2022-08-28T05:21:32.676Z,78.70
2022-08-28T05:24:00.625Z,78.34
2022-08-28T05:26:29.913Z,78.37
2022-08-28T05:28:59.201Z,78.25
2022-08-28T05:31:28.957Z,77.72
2022-08-28T05:33:56.953Z,76.04
2022-08-28T05:36:32.446Z,74.94
2022-08-28T05:39:02.322Z,74.45
2022-08-28T05:41:31.675Z,74.05
2022-08-28T05:44:02.815Z,74.32
2022-08-28T05:46:31.435Z,73.85
2022-08-28T05:48:59.645Z,73.70
2022-08-28T05:51:29.664Z,73.23
2022-08-28T05:53:58.575Z,72.57
2022-08-28T05:56:29.640Z,72.15
2022-08-28T05:58:58.055Z,72.19
2022-08-28T06:01:28.493Z,72.25
2022-08-28T06:03:59.129Z,72.33
2022-08-28T06:06:31.584Z,71.60
2022-08-28T06:09:01.741Z,70.92
2022-08-28T06:11:31.263Z,70.95
2022-08-28T06:14:01.794Z,71.04
2022-08-28T06:16:31.785Z,71.53
2022-08-28T06:19:00.392Z,71.32
2022-08-28T06:21:29.919Z,71.28
2022-08-28T06:23:58.117Z,71.01
2022-08-28T06:26:26.448Z,71.21
2022-08-28T06:28:54.475Z,71.85
2022-08-28T06:31:24.627Z,71.89
2022-08-28T06:33:54.539Z,71.72
2022-08-28T06:36:22.711Z,71.08
2022-08-28T06:38:51.967Z,70.29
2022-08-28T06:41:19.901Z,69.76
2022-08-28T06:43:47.796Z,69.32
2022-08-28T06:46:15.842Z,69.33
2022-08-28T06:48:43.907Z,69.15
2022-08-28T06:51:13.744Z,68.93
2022-08-28T06:53:43.268Z,68.44
2022-08-28T06:56:25.446Z,68.08
2022-08-28T06:58:56.419Z,67.84
2022-08-28T07:01:29.202Z,67.39
2022-08-28T07:04:00.335Z,67.35
2022-08-28T07:06:31.450Z,67.01
2022-08-28T07:08:59.482Z,66.91
2022-08-28T07:11:31.390Z,67.12
2022-08-28T07:14:00.456Z,67.28
2022-08-28T07:16:30.447Z,67.50
2022-08-28T07:18:58.897Z,67.65
2022-08-28T07:21:27.434Z,67.00
2022-08-28T07:23:56.094Z,67.03
2022-08-28T07:26:26.128Z,66.50
2022-08-28T07:28:59.531Z,66.53
2022-08-28T07:31:41.143Z,66.06
2022-08-28T07:34:09.751Z,66.17
2022-08-28T07:36:38.806Z,66.09
2022-08-28T07:39:07.743Z,65.77
2022-08-28T07:41:39.153Z,65.95
2022-08-28T07:44:27.252Z,65.34
2022-08-28T07:46:55.928Z,65.57
2022-08-28T07:49:25.303Z,65.20
2022-08-28T07:51:54.042Z,65.37
2022-08-28T07:54:22.676Z,65.37
2022-08-28T07:56:51.090Z,64.88
2022-08-28T07:59:21.051Z,64.39
2022-08-28T08:01:51.886Z,64.38
2022-08-28T08:04:21.767Z,64.57
2022-08-28T08:06:53.325Z,64.59
2022-08-28T08:09:25.060Z,64.19
2022-08-28T08:11:54.219Z,64.67
2022-08-28T08:14:24.906Z,64.35
2022-08-28T08:16:54.144Z,64.85
2022-08-28T08:19:22.741Z,65.00
2022-08-28T08:21:53.239Z,65.35
2022-08-28T08:24:25.815Z,65.13
2022-08-28T08:27:00.385Z,65.15
2022-08-28T08:29:32.419Z,64.70
2022-08-28T08:32:05.560Z,64.48
2022-08-28T08:34:35.270Z,64.30
2022-08-28T08:37:03.445Z,64.17
2022-08-28T08:39:31.786Z,63.98
2022-08-28T08:42:03.292Z,64.09
2022-08-28T08:44:35.479Z,63.77
2022-08-28T08:47:14.914Z,63.47
2022-08-28T08:49:51.074Z,63.41
2022-08-28T08:52:35.914Z,63.01
2022-08-28T08:55:20.179Z,63.63
2022-08-28T08:57:54.338Z,63.37
2022-08-28T09:00:23.940Z,63.23
2022-08-28T09:03:01.573Z,62.75
2022-08-28T09:05:50.041Z,62.24
2022-08-28T09:08:32.865Z,61.55
2022-08-28T09:11:12.413Z,61.14
2022-08-28T09:13:49.277Z,61.08
2022-08-28T09:16:27.802Z,61.06
2022-08-28T09:18:59.027Z,61.18
2022-08-28T09:21:30.139Z,60.86
2022-08-28T09:24:05.511Z,60.73
2022-08-28T09:26:34.168Z,60.53
2022-08-28T09:29:05.199Z,60.40
2022-08-28T09:31:38.061Z,60.06
2022-08-28T09:34:20.756Z,59.85
2022-08-28T09:36:48.722Z,59.66
2022-08-28T09:39:20.479Z,59.15
2022-08-28T09:42:34.049Z,58.87
2022-08-28T09:45:14.054Z,58.48
2022-08-28T09:47:49.746Z,58.19
2022-08-28T09:50:25.908Z,57.62
2022-08-28T09:52:56.639Z,57.26
2022-08-28T09:55:34.518Z,57.35
2022-08-28T09:58:02.753Z,57.10
2022-08-28T10:00:34.669Z,57.29
2022-08-28T10:03:14.502Z,57.28
2022-08-28T10:05:55.887Z,57.02
2022-08-28T10:08:34.464Z,56.60
2022-08-28T10:11:08.481Z,56.23
2022-08-28T10:13:42.715Z,56.12
2022-08-28T10:16:26.256Z,55.71
2022-08-28T10:19:04.168Z,55.39
2022-08-28T10:21:39.800Z,55.55
2022-08-28T10:24:27.991Z,55.22
2022-08-28T10:27:06.356Z,55.29
2022-08-28T10:29:48.327Z,54.95
2022-08-28T10:32:43.728Z,54.42
2022-08-28T10:35:19.109Z,53.91
2022-08-28T10:37:58.489Z,53.47
2022-08-28T10:40:30.507Z,53.30
2022-08-28T10:43:04.814Z,52.98
2022-08-28T10:45:35.349Z,52.27
2022-08-28T10:48:20.879Z,52.99
2022-08-28T10:50:54.057Z,52.93
2022-08-28T10:53:27.271Z,53.14
2022-08-28T10:55:58.212Z,53.00
2022-08-28T10:58:28.181Z,52.61
2022-08-28T11:00:58.510Z,52.70
2022-08-28T11:03:36.412Z,53.02
2022-08-28T11:06:14.047Z,53.01
2022-08-28T11:08:41.975Z,53.08
2022-08-28T11:11:14.794Z,52.84
2022-08-28T11:13:57.754Z,52.81
2022-08-28T11:16:37.974Z,52.96
2022-08-28T11:19:27.420Z,53.12
2022-08-28T11:22:04.453Z,52.81
2022-08-28T11:24:47.024Z,52.33
2022-08-28T11:27:26.915Z,52.29
2022-08-28T11:30:16.036Z,51.88
2022-08-28T11:33:10.969Z,52.11
2022-08-28T11:35:56.846Z,52.70
2022-08-28T11:39:13.815Z,53.05
2022-08-28T11:42:32.075Z,53.20
2022-08-28T11:45:00.583Z,53.46
2022-08-28T11:47:44.731Z,53.33
2022-08-28T11:50:18.491Z,52.98
2022-08-28T11:53:18.961Z,53.02
2022-08-28T11:56:13.585Z,52.64
2022-08-28T11:58:57.974Z,52.21
2022-08-28T12:01:32.291Z,51.98
2022-08-28T12:04:08.080Z,52.39
2022-08-28T12:06:55.777Z,52.92
2022-08-28T12:09:44.839Z,53.10
2022-08-28T12:12:43.986Z,52.03
2022-08-28T12:15:40.645Z,51.67
2022-08-28T12:18:16.873Z,51.56
2022-08-28T12:21:00.986Z,51.81
2022-08-28T12:23:37.081Z,51.51
2022-08-28T12:26:08.168Z,51.59
2022-08-28T12:28:44.740Z,51.48
2022-08-28T12:31:57.121Z,51.09
2022-08-28T12:34:35.466Z,50.80
2022-08-28T12:37:05.189Z,50.79
2022-08-28T12:39:34.381Z,50.67
2022-08-28T12:42:03.873Z,51.01
2022-08-28T12:44:33.676Z,51.24
2022-08-28T12:47:02.981Z,51.63
2022-08-28T12:49:34.908Z,51.15
2022-08-28T12:52:16.721Z,50.86
2022-08-28T12:54:46.120Z,50.86
2022-08-28T12:57:16.940Z,49.92
2022-08-28T12:59:46.918Z,48.37
2022-08-28T13:02:25.980Z,48.49
2022-08-28T13:04:57.432Z,48.62
2022-08-28T13:07:29.464Z,48.12
2022-08-28T13:10:00.539Z,48.21
2022-08-28T13:12:55.133Z,48.26
2022-08-28T13:15:43.445Z,47.93
2022-08-28T13:18:51.425Z,46.94
2022-08-28T13:21:37.353Z,46.85
2022-08-28T13:24:26.146Z,46.29
2022-08-28T13:27:02.267Z,46.03
2022-08-28T13:29:30.912Z,46.23
2022-08-28T13:32:01.991Z,46.09
2022-08-28T13:34:33.174Z,45.92
2022-08-28T13:37:02.799Z,45.10
2022-08-28T13:39:34.038Z,44.39
2022-08-28T13:42:07.027Z,43.78
2022-08-28T13:44:37.682Z,43.90
2022-08-28T13:47:07.706Z,43.68
2022-08-28T13:49:37.208Z,43.58
2022-08-28T13:52:07.893Z,43.33
2022-08-28T13:54:38.155Z,43.28
2022-08-28T13:57:10.460Z,42.52
2022-08-28T13:59:38.359Z,42.40
2022-08-28T14:02:26.955Z,42.17
2022-08-28T14:04:56.243Z,41.59
2022-08-28T14:07:24.148Z,41.92
2022-08-28T14:09:56.278Z,42.14
2022-08-28T14:12:32.705Z,42.13
2022-08-28T14:15:02.153Z,42.32
2022-08-28T14:17:30.274Z,42.33
2022-08-28T14:20:00.689Z,42.69
2022-08-28T14:22:28.918Z,42.62
2022-08-28T14:24:56.802Z,43.18
2022-08-28T14:27:24.674Z,43.19
2022-08-28T14:29:53.302Z,42.94
2022-08-28T14:32:21.538Z,42.96
2022-08-28T14:34:50.561Z,42.47
2022-08-28T14:37:20.454Z,41.79
2022-08-28T14:39:50.451Z,41.46
2022-08-28T14:42:19.298Z,41.01
2022-08-28T14:44:47.458Z,40.76
2022-08-28T14:47:15.437Z,41.13
2022-08-28T14:49:43.374Z,41.49
2022-08-28T14:52:12.022Z,41.53
2022-08-28T14:54:41.340Z,42.09
2022-08-28T14:57:09.292Z,42.77
2022-08-28T14:59:37.165Z,42.98
2022-08-28T15:02:05.488Z,43.02
2022-08-28T15:04:37.688Z,42.97
2022-08-28T15:07:08.027Z,43.19
2022-08-28T15:09:37.566Z,43.20
2022-08-28T15:12:07.353Z,43.31
2022-08-28T15:14:35.599Z,43.24
2022-08-28T15:17:04.124Z,43.06
2022-08-28T15:19:32.515Z,42.41
2022-08-28T15:22:01.554Z,42.16
2022-08-28T15:24:33.077Z,41.96
2022-08-28T15:27:01.628Z,42.04
2022-08-28T15:29:31.080Z,42.37
2022-08-28T15:32:00.665Z,41.92
2022-08-28T15:34:29.313Z,41.98
2022-08-28T15:36:58.019Z,41.63
2022-08-28T15:39:45.186Z,41.42
2022-08-28T15:42:14.148Z,41.88
2022-08-28T15:44:43.503Z,41.82
2022-08-28T15:47:12.558Z,42.09
2022-08-28T15:49:49.931Z,42.42
2022-08-28T15:52:20.491Z,42.64
2022-08-28T15:54:49.538Z,43.42
2022-08-28T15:57:17.910Z,43.91
2022-08-28T15:59:50.332Z,44.48
2022-08-28T16:02:19.555Z,45.36
2022-08-28T16:04:47.615Z,45.48
2022-08-28T16:07:15.901Z,46.22
2022-08-28T16:09:43.864Z,46.71
2022-08-28T16:12:11.773Z,47.19
2022-08-28T16:14:39.782Z,47.94
2022-08-28T16:17:10.799Z,48.74
2022-08-28T16:19:39.832Z,49.21
2022-08-28T16:22:07.843Z,49.26
2022-08-28T16:24:35.968Z,49.64
2022-08-28T16:27:04.401Z,50.13
2022-08-28T16:29:34.561Z,50.28
2022-08-28T16:32:05.099Z,50.45
2022-08-28T16:34:34.896Z,50.60
2022-08-28T16:37:05.686Z,50.75
2022-08-28T16:39:36.313Z,51.21
2022-08-28T16:42:04.399Z,51.66
2022-08-28T16:44:32.348Z,51.80
2022-08-28T16:47:00.274Z,51.93
2022-08-28T16:49:28.219Z,51.93
2022-08-28T16:51:57.460Z,52.32
2022-08-28T16:54:25.349Z,52.86
2022-08-28T16:56:53.284Z,53.42
2022-08-28T16:59:23.303Z,53.97
2022-08-28T17:01:52.944Z,54.66
2022-08-28T17:04:22.110Z,54.90
2022-08-28T17:06:50.447Z,55.37
2022-08-28T17:09:21.128Z,55.92
2022-08-28T17:11:52.029Z,56.21
2022-08-28T17:14:20.584Z,56.18
2022-08-28T17:16:48.872Z,56.28
2022-08-28T17:19:16.752Z,56.81
2022-08-28T17:22:02.029Z,57.16
2022-08-28T17:24:31.893Z,57.94
2022-08-28T17:27:05.173Z,58.36
2022-08-28T17:29:34.096Z,58.53
2022-08-28T17:32:02.195Z,58.96
2022-08-28T17:34:30.759Z,59.84
2022-08-28T17:36:58.750Z,59.79
2022-08-28T17:39:26.668Z,60.23
2022-08-28T17:41:56.565Z,60.27
2022-08-28T17:44:24.620Z,60.86
2022-08-28T17:46:52.683Z,61.21
2022-08-28T17:49:20.573Z,62.02
2022-08-28T17:51:48.452Z,62.23
2022-08-28T17:54:21.325Z,62.11
2022-08-28T17:56:50.116Z,62.35
2022-08-28T17:59:20.669Z,62.94
2022-08-28T18:01:49.838Z,62.57
2022-08-28T18:04:23.958Z,62.74
2022-08-28T18:06:54.141Z,63.06
2022-08-28T18:09:23.353Z,63.39
2022-08-28T18:11:51.695Z,63.33
2022-08-28T18:14:21.587Z,63.45
2022-08-28T18:16:49.641Z,63.56
2022-08-28T18:19:17.629Z,63.36
2022-08-28T18:21:45.766Z,63.70
2022-08-28T18:24:14.203Z,64.12
2022-08-28T18:26:43.396Z,64.29
2022-08-28T18:29:11.574Z,64.42
2022-08-28T18:31:41.398Z,64.43
2022-08-28T18:34:10.819Z,64.40
2022-08-28T18:36:39.902Z,64.24
2022-08-28T18:39:07.977Z,64.57
2022-08-28T18:41:44.515Z,63.97
2022-08-28T18:44:14.114Z,63.95
2022-08-28T18:46:44.667Z,64.05
2022-08-28T18:49:13.650Z,63.98
2022-08-28T18:51:42.952Z,63.91
2022-08-28T18:54:11.247Z,64.26
2022-08-28T18:56:40.951Z,64.10
2022-08-28T18:59:09.361Z,63.72
2022-08-28T19:01:37.624Z,63.92
2022-08-28T19:04:07.064Z,63.84
2022-08-28T19:06:36.056Z,64.03
2022-08-28T19:09:05.491Z,64.32
2022-08-28T19:11:35.780Z,63.92
2022-08-28T19:14:04.260Z,64.24
2022-08-28T19:16:33.376Z,63.97
2022-08-28T19:19:01.638Z,64.29
2022-08-28T19:21:31.398Z,63.33
2022-08-28T19:23:59.290Z,63.78
2022-08-28T19:26:28.069Z,63.93
2022-08-28T19:28:56.316Z,64.17
2022-08-28T19:31:25.720Z,63.73
2022-08-28T19:33:54.083Z,63.86
2022-08-28T19:36:22.365Z,63.97
2022-08-28T19:38:51.650Z,64.41
2022-08-28T19:41:19.733Z,64.39
2022-08-28T19:43:47.613Z,64.42
2022-08-28T19:46:19.640Z,64.58
2022-08-28T19:48:48.582Z,64.52
2022-08-28T19:51:17.410Z,64.71
2022-08-28T19:53:45.697Z,64.26
2022-08-28T19:56:14.962Z,64.52
2022-08-28T19:58:42.867Z,64.69
2022-08-28T20:01:11.335Z,64.93
2022-08-28T20:03:40.164Z,64.42
2022-08-28T20:06:08.639Z,64.35
2022-08-28T20:08:36.558Z,64.65
2022-08-28T20:11:04.890Z,64.81
2022-08-28T20:13:34.232Z,64.99
2022-08-28T20:16:04.741Z,65.24
2022-08-28T20:18:33.354Z,64.86
2022-08-28T20:21:01.902Z,65.65
2022-08-28T20:23:29.808Z,64.53
2022-08-28T20:25:57.771Z,64.37
2022-08-28T20:28:25.643Z,64.60
2022-08-28T20:30:54.961Z,64.39
2022-08-28T20:33:23.121Z,64.86
2022-08-28T20:36:00.525Z,65.00
2022-08-28T20:38:28.449Z,64.84
2022-08-28T20:41:03.936Z,64.92
2022-08-28T20:43:31.965Z,64.92
2022-08-28T20:46:01.706Z,65.45
2022-08-28T20:48:33.749Z,65.63
2022-08-28T20:51:02.112Z,65.19
2022-08-28T20:53:37.428Z,65.49
2022-08-28T20:56:09.921Z,65.61
2022-08-28T20:58:38.796Z,65.56
2022-08-28T21:01:08.484Z,66.31
2022-08-28T21:03:36.472Z,66.24
2022-08-28T21:06:04.437Z,66.73
2022-08-28T21:08:32.360Z,66.66
2022-08-28T21:11:00.525Z,67.13
2022-08-28T21:13:28.392Z,67.21
2022-08-28T21:15:56.253Z,67.15
2022-08-28T21:18:25.519Z,66.84
2022-08-28T21:20:55.688Z,67.02
2022-08-28T21:23:24.400Z,66.44
2022-08-28T21:25:52.276Z,66.52
2022-08-28T21:28:20.319Z,66.86
2022-08-28T21:30:50.781Z,66.38
2022-08-28T21:33:21.872Z,66.23
2022-08-28T21:35:52.378Z,66.49
2022-08-28T21:38:21.052Z,66.79
2022-08-28T21:40:49.600Z,66.43
2022-08-28T21:43:17.540Z,66.99
2022-08-28T21:45:45.502Z,67.27
2022-08-28T21:48:13.826Z,67.60
2022-08-28T21:50:44.214Z,67.71
2022-08-28T21:53:16.426Z,67.84
2022-08-28T21:55:50.821Z,67.74
2022-08-28T21:58:20.424Z,67.57
2022-08-28T22:00:49.976Z,67.37
2022-08-28T22:03:18.532Z,67.39
2022-08-28T22:05:47.863Z,67.10
2022-08-28T22:08:18.765Z,67.63
2022-08-28T22:10:47.820Z,67.46
2022-08-28T22:13:17.158Z,67.12
2022-08-28T22:15:46.883Z,66.73
2022-08-28T22:18:16.606Z,66.51
2022-08-28T22:21:03.665Z,66.64
2022-08-28T22:23:35.473Z,66.68
2022-08-28T22:26:04.904Z,66.27
2022-08-28T22:28:33.157Z,66.23
2022-08-28T22:31:02.049Z,66.42
2022-08-28T22:33:30.943Z,66.18
2022-08-28T22:35:59.709Z,66.34
2022-08-28T22:38:28.148Z,66.22
2022-08-28T22:40:57.965Z,66.39
2022-08-28T22:43:26.023Z,66.38
2022-08-28T22:45:54.007Z,66.57
2022-08-28T22:48:21.920Z,66.90
2022-08-28T22:50:50.033Z,66.70
2022-08-28T22:53:18.760Z,66.67
2022-08-28T22:55:46.598Z,66.97
2022-08-28T22:58:15.885Z,67.26
2022-08-28T23:00:43.906Z,67.44
2022-08-28T23:03:11.891Z,67.23
2022-08-28T23:05:39.884Z,67.36
2022-08-28T23:08:07.819Z,67.46
2022-08-28T23:10:57.375Z,67.22
2022-08-28T23:13:25.053Z,67.26
2022-08-28T23:15:53.049Z,67.17
2022-08-28T23:18:23.091Z,67.73
2022-08-28T23:20:55.517Z,68.35
2022-08-28T23:23:25.638Z,68.48
2022-08-28T23:25:53.530Z,68.25
2022-08-28T23:28:21.550Z,68.45
2022-08-28T23:30:50.831Z,68.54
2022-08-28T23:33:23.753Z,68.61
2022-08-28T23:35:52.250Z,68.74
2022-08-28T23:38:20.360Z,68.82
2022-08-28T23:40:49.016Z,68.66
2022-08-28T23:43:19.220Z,68.83
2022-08-28T23:45:47.389Z,68.77
2022-08-28T23:48:17.520Z,68.82
2022-08-28T23:50:45.393Z,68.81
2022-08-28T23:53:13.243Z,68.77
2022-08-28T23:55:44.540Z,69.15
2022-08-28T23:58:12.559Z,69.27
